This is the latest recevied weather packets stored in our database for station/object DB0NU-15. If no packets are shown the sender has not sent any weather packets the latest 1 day(s).
| Time | Temp. | Humidity | Pressure | Rain* | Wind** | Luminosity | Snow |
|---|---|---|---|---|---|---|---|
| 1836274731 | 16.11° C | 78% | 1021.7 hPa | 0 mm | 0.89 m/s, 158° | - | - |
| 1836274587 | 16.11° C | 77% | 1021.5 hPa | 0 mm | 0.89 m/s, 158° | - | - |
| 1836274126 | 16.11° C | 78% | 1021.7 hPa | 0 mm | 0.89 m/s, 158° | - | - |
| 1778010072 | 11.67° C | 97% | 1007.8 hPa | 0 mm | 0.45 m/s, 178° | - | - |
| 1778009469 | 11.67° C | 97% | 1007.6 hPa | 0.25 mm | 0 m/s | - | - |
| 1778005849 | 12.22° C | 97% | 1007.3 hPa | 1.02 mm | 0 m/s | - | - |
| 1778004038 | 12.22° C | 97% | 1007.1 hPa | 2.79 mm | 0.45 m/s, 312° | - | - |
| 1778003435 | 12.22° C | 97% | 1006.9 hPa | 3.3 mm | 1.34 m/s, 348° | - | - |
| 1778002832 | 12.22° C | 96% | 1007.2 hPa | 3.56 mm | 0.45 m/s, 13° | - | - |
| 1778002228 | 12.78° C | 96% | 1007.3 hPa | 3.05 mm | 0.45 m/s, 132° | - | - |
| 1778001625 | 12.78° C | 96% | 1007.5 hPa | 2.03 mm | 0.89 m/s, 139° | - | - |
| 1778001021 | 12.78° C | 96% | 1007.6 hPa | 1.78 mm | 0.89 m/s, 134° | - | - |
| 1777999272 | 13.33° C | 93% | 1007.4 hPa | 2.79 mm | 1.34 m/s, 124° | - | - |
| 1777998668 | 13.89° C | 91% | 1007 hPa | 3.81 mm | 0.45 m/s, 293° | - | - |
| 1777998064 | 13.89° C | 90% | 1006.8 hPa | 3.81 mm | 0 m/s | - | - |
| 1777997461 | 13.89° C | 90% | 1006.5 hPa | 3.81 mm | 1.34 m/s, 4° | - | - |
| 1777996857 | 14.44° C | 90% | 1006.7 hPa | 3.3 mm | 0.89 m/s, 20° | - | - |
| 1777996254 | 14.44° C | 88% | 1007.1 hPa | 2.03 mm | 0.89 m/s, 284° | - | - |
| 1777995651 | 14.44° C | 88% | 1007.1 hPa | 1.27 mm | 0.89 m/s, 113° | - | - |
| 1777995047 | 18.33° C | 68% | 1006.8 hPa | 0 mm | 0.45 m/s, 161° | - | - |
| 1777994444 | 19.44° C | 61% | 1006.5 hPa | 0 mm | 0.89 m/s, 56° | - | - |
| 1777993236 | 20° C | 58% | 1006.5 hPa | 0 mm | 0.89 m/s, 325° | - | - |
| 1777992028 | 20° C | 56% | 1006.6 hPa | 0 mm | 1.34 m/s, 319° | - | - |
| 1777991425 | 20° C | 55% | 1006.8 hPa | 0 mm | 0.45 m/s, 330° | - | - |
| 1777990821 | 20.56° C | 55% | 1006.9 hPa | 0 mm | 0.89 m/s, 330° | - | - |
* Rain latest hour (hover to see other rain measurements)
** Current wind speed in m/s (hover to see current wind gust speed)